Hauptseite
METAR-TAF:

METAR-TAF

Flughäfen :

Middle Wallop Airfield

Middle Wallop, England

Breite: 51-09N, Länge: 001-34W, Höhe: 91 m

Beobachtung

Neuester Wetterbericht von vor 26 Minuten, um 09:50 UTC
Wind 9 kt aus Südwest
Temperatur 18°C
Luftfeuchtigkeit 77%
Luftdruck 1021 hPa
Sichtweite 10 km oder mehr

METAR: EGVP 180950Z AUTO 23009KT 9999 // FEW019/// BKN032/// 18/14 Q1021

Zeit: 11:16 (10:16 UTC)

Prognose

Neuester Wetterbericht von vor 23 Stunden und 38 Minuten, um 10:38 UTC
Gültige Prognose vom 17 um 12 UTC bis 17 um 17 UTC
Wind 10 kt aus West
Sichtweite 10 km oder mehr
Durchbrochene Bewölkung in der Höhe von 4500 ft

TAF: EGVP 171038Z 1712/1717 28010KT 9999 BKN045

Wetterbeobachtungen und Prognosen von mehr als 4000 Flughäfen (METAR und TAF Bericht).

Die verfügbaren Stationen werden durch gelbe und rote Markierungen auf der Karte dargestellt.

Führen Sie die Maus auf sie, um den Namen der Station zu sehen.

Darauf klicken, um die Beobachtung von Wetterbeobachtungen und Prognosen zu sehen.

Um die Karte zu ändern : klicken Sie auf den grünen Tasten mit einem schwarzen Kreuz Zum Vergrößern, auf den grünen Button mit einem Gedankenstrich zu verkleinern, oder auf die grünen Pfeile für benachbarte Karten.


METAR-TAF: